Time;durP1;ratioP1;P1;durP2;ratioP2;P2;SDS_P1;SDS_P2;PMS_P1;PMS_P2;Temp;Humidity;BMP_temperature;BMP_pressure;BME280_temperature;BME280_humidity;BME280_pressure;Samples;Min_cycle;Max_cycle;Signal;HPM_P1;HPM_P2
2021/11/17 02:26:42;;;;;;;8.60;3.92;;;27.10;94.30;;;;;;4211234;28;20043;-69
2021/11/17 02:29:26;;;;;;;9.10;4.03;;;27.10;94.60;;;;;;4211635;28;20128;-69
2021/11/17 02:32:04;;;;;;;6.68;3.53;;;27.20;93.80;;;;;;4211800;28;20043;-69
2021/11/17 02:34:32;;;;;;;10.20;3.83;;;27.20;93.80;;;;;;4211940;28;20044;-67
2021/11/17 02:37:12;;;;;;;9.82;3.92;;;27.30;94.10;;;;;;4211456;28;21012;-68
2021/11/17 02:39:44;;;;;;;8.95;4.00;;;27.40;93.70;;;;;;4210397;28;20387;-68
2021/11/17 02:42:17;;;;;;;15.32;3.90;;;27.40;93.70;;;;;;4210614;28;20080;-67
2021/11/17 02:44:48;;;;;;;8.50;3.60;;;27.40;93.90;;;;;;4209445;28;20037;-66
2021/11/17 02:47:14;;;;;;;8.30;4.20;;;27.50;93.60;;;;;;4208714;28;20040;-67
2021/11/17 02:49:40;;;;;;;9.48;4.13;;;27.50;93.40;;;;;;4211908;28;20445;-68
2021/11/17 02:52:04;;;;;;;11.00;3.85;;;27.60;93.70;;;;;;4211469;28;20079;-67
2021/11/17 02:54:34;;;;;;;11.20;5.22;;;27.60;93.50;;;;;;4211922;28;20044;-67
2021/11/17 02:57:10;;;;;;;8.80;3.67;;;27.70;93.10;;;;;;4210062;28;20106;-66
2021/11/17 02:59:54;;;;;;;12.38;3.65;;;27.70;92.90;;;;;;4209370;28;20126;-67
2021/11/17 03:02:31;;;;;;;9.00;4.10;;;27.80;92.40;;;;;;4207841;28;20051;-67
2021/11/17 03:05:12;;;;;;;8.10;4.95;;;27.80;92.90;;;;;;4208481;28;20036;-67
2021/11/17 03:07:42;;;;;;;10.60;3.50;;;27.80;92.30;;;;;;4208195;28;20042;-68
2021/11/17 03:10:11;;;;;;;9.50;3.08;;;27.90;92.20;;;;;;4207069;28;20055;-67
2021/11/17 03:12:36;;;;;;;5.32;2.95;;;27.90;92.20;;;;;;4202504;28;20563;-68
2021/11/17 03:14:56;;;;;;;16.42;3.65;;;28.00;92.30;;;;;;4204169;28;20056;-69
2021/11/17 03:17:14;;;;;;;7.00;2.80;;;28.10;91.90;;;;;;4212103;28;20037;-68
2021/11/17 03:19:34;;;;;;;7.90;3.15;;;28.10;91.90;;;;;;4211580;28;20044;-68
2021/11/17 03:21:55;;;;;;;8.52;3.25;;;28.20;92.00;;;;;;4194357;28;20101;-68
2021/11/17 03:24:24;;;;;;;7.85;2.85;;;28.40;91.80;;;;;;4195173;28;20071;-68
2021/11/17 03:26:38;;;;;;;7.90;3.05;;;28.40;91.80;;;;;;4208377;28;20074;-68
2021/11/17 03:28:58;;;;;;;6.88;2.83;;;28.40;91.40;;;;;;4215366;28;20131;-68
2021/11/17 03:31:36;;;;;;;9.27;4.15;;;28.50;91.10;;;;;;4215343;28;20104;-67
2021/11/17 03:34:06;;;;;;;9.07;3.78;;;28.40;91.40;;;;;;4215678;28;20048;-69
2021/11/17 03:36:29;;;;;;;9.68;4.68;;;28.50;91.30;;;;;;4213650;28;20086;-68
2021/11/17 03:38:54;;;;;;;7.07;2.53;;;28.50;90.60;;;;;;4215145;28;20055;-69
2021/11/17 03:41:07;;;;;;;6.57;3.03;;;28.60;90.80;;;;;;4213521;28;20050;-69
2021/11/17 03:43:38;;;;;;;7.78;3.10;;;28.60;90.90;;;;;;4205615;28;20405;-66
2021/11/17 03:45:51;;;;;;;5.60;3.10;;;28.60;91.10;;;;;;4213972;28;20123;-68
2021/11/17 03:48:25;;;;;;;5.10;2.70;;;28.60;91.00;;;;;;4203828;28;20049;-67
2021/11/17 03:50:32;;;;;;;7.22;3.30;;;28.60;91.10;;;;;;4212353;28;20056;-68
2021/11/17 03:52:40;;;;;;;7.95;3.08;;;28.70;91.10;;;;;;4215247;28;20056;-68
2021/11/17 03:55:09;;;;;;;7.07;2.60;;;28.80;90.90;;;;;;4214704;28;20048;-68
2021/11/17 03:57:32;;;;;;;6.22;2.80;;;28.80;90.60;;;;;;4214945;28;20127;-70
2021/11/17 03:59:52;;;;;;;7.00;3.25;;;28.80;90.60;;;;;;4213000;28;20517;-67
2021/11/17 04:02:09;;;;;;;10.13;2.70;;;28.80;90.60;;;;;;4212555;28;20081;-69
2021/11/17 04:04:29;;;;;;;10.63;3.28;;;28.90;90.60;;;;;;4210971;28;20051;-67
2021/11/17 04:06:46;;;;;;;6.10;2.80;;;28.90;90.70;;;;;;4212617;28;20089;-68
2021/11/17 04:09:17;;;;;;;6.15;2.53;;;29.00;90.40;;;;;;4212037;28;20506;-68
2021/11/17 04:11:32;;;;;;;9.25;2.70;;;28.90;90.30;;;;;;4211910;28;20053;-68
2021/11/17 04:13:51;;;;;;;8.65;2.50;;;28.90;90.50;;;;;;4211907;28;20060;-68
2021/11/17 04:16:08;;;;;;;8.00;2.95;;;29.10;90.10;;;;;;4212917;28;20048;-69
2021/11/17 04:18:32;;;;;;;5.93;2.53;;;29.10;90.30;;;;;;4209467;28;20067;-69
2021/11/17 04:20:56;;;;;;;9.30;2.97;;;29.10;89.80;;;;;;4206592;28;20052;-69
2021/11/17 04:23:25;;;;;;;22.60;3.75;;;29.00;90.20;;;;;;4210832;28;20448;-69
2021/11/17 04:25:54;;;;;;;11.43;3.40;;;29.00;90.40;;;;;;4212299;28;20518;-69
2021/11/17 04:28:23;;;;;;;8.95;2.95;;;29.10;90.10;;;;;;4210509;28;20101;-70
2021/11/17 04:30:42;;;;;;;5.95;2.80;;;29.30;90.20;;;;;;4208956;28;20086;-69
2021/11/17 04:33:15;;;;;;;8.40;3.30;;;29.40;90.20;;;;;;4208965;28;20040;-68
2021/11/17 04:35:39;;;;;;;7.13;3.50;;;29.40;90.00;;;;;;4208061;28;20035;-69
2021/11/17 04:37:54;;;;;;;6.63;3.17;;;29.40;89.90;;;;;;4209189;28;20570;-69
2021/11/17 04:40:14;;;;;;;8.40;3.30;;;29.30;90.10;;;;;;4206201;28;20786;-69
2021/11/17 04:42:41;;;;;;;9.77;3.30;;;29.40;90.00;;;;;;4207917;28;20048;-68
2021/11/17 04:44:46;;;;;;;6.55;3.00;;;29.50;90.20;;;;;;4208513;28;20032;-69
2021/11/17 04:47:09;;;;;;;8.10;2.97;;;29.50;90.40;;;;;;4210450;28;20053;-69
2021/11/17 04:49:38;;;;;;;10.47;3.20;;;29.60;89.90;;;;;;4210243;28;20036;-70
2021/11/17 04:51:49;;;;;;;7.65;3.30;;;29.60;90.00;;;;;;4208312;28;20055;-70
2021/11/17 04:54:18;;;;;;;6.30;3.00;;;29.70;89.30;;;;;;4209673;28;20454;-70
2021/11/17 04:56:35;;;;;;;9.77;2.90;;;29.70;88.80;;;;;;4210387;28;20044;-69
2021/11/17 04:58:57;;;;;;;4.25;2.60;;;29.70;89.20;;;;;;4210236;28;20036;-70
2021/11/17 05:01:20;;;;;;;10.77;3.63;;;29.70;89.30;;;;;;4193832;28;20449;-70
2021/11/17 05:03:34;;;;;;;9.68;3.38;;;29.80;89.70;;;;;;4210512;28;20056;-70
2021/11/17 05:05:53;;;;;;;16.83;4.15;;;29.80;89.70;;;;;;4209959;28;20052;-70
2021/11/17 05:08:10;;;;;;;8.10;3.00;;;30.00;90.00;;;;;;4210581;28;20050;-70
2021/11/17 05:10:29;;;;;;;5.68;3.00;;;30.00;88.50;;;;;;4209642;28;20051;-71
2021/11/17 05:12:53;;;;;;;11.52;3.00;;;30.00;88.70;;;;;;4209065;28;20135;-70
2021/11/17 05:15:12;;;;;;;12.93;3.33;;;30.10;88.40;;;;;;4209201;28;20036;-71
2021/11/17 05:17:46;;;;;;;13.63;3.88;;;30.10;89.30;;;;;;4210035;28;20047;-71
2021/11/17 05:19:56;;;;;;;10.95;3.53;;;30.10;89.60;;;;;;4207313;28;20087;-70
2021/11/17 05:22:06;;;;;;;11.90;3.45;;;30.10;89.60;;;;;;4209301;28;20078;-70
2021/11/17 05:24:17;;;;;;;15.05;3.10;;;30.00;89.50;;;;;;4210471;28;20131;-70
2021/11/17 05:26:34;;;;;;;11.50;4.25;;;30.00;89.90;;;;;;4210258;28;20047;-70
2021/11/17 05:28:56;;;;;;;8.88;3.80;;;30.00;89.90;;;;;;4209181;28;20409;-70
2021/11/17 05:31:13;;;;;;;5.50;2.97;;;30.00;89.80;;;;;;4208617;28;20048;-70
2021/11/17 05:33:33;;;;;;;8.10;2.45;;;30.10;89.10;;;;;;4207933;28;20051;-70
2021/11/17 05:36:00;;;;;;;8.90;2.97;;;30.10;88.80;;;;;;4209650;28;20452;-69
2021/11/17 05:38:07;;;;;;;7.63;3.00;;;30.10;88.90;;;;;;4208976;28;20402;-68
2021/11/17 05:40:15;;;;;;;8.35;2.88;;;30.20;87.90;;;;;;4207838;28;20044;-70
2021/11/17 05:42:44;;;;;;;6.65;2.70;;;30.20;88.10;;;;;;4207779;28;20387;-70
2021/11/17 05:45:01;;;;;;;7.72;3.03;;;30.20;87.80;;;;;;4209357;28;20055;-69
2021/11/17 05:47:15;;;;;;;6.03;2.97;;;30.30;87.90;;;;;;4208372;28;20044;-69
2021/11/17 05:49:48;;;;;;;8.10;3.05;;;30.30;87.20;;;;;;4208318;28;20050;-70
2021/11/17 05:52:11;;;;;;;6.55;3.03;;;30.40;87.50;;;;;;4206844;28;20048;-70
2021/11/17 05:54:34;;;;;;;7.90;2.95;;;30.40;88.00;;;;;;4207791;28;20057;-69
2021/11/17 05:57:01;;;;;;;6.40;3.30;;;30.50;88.20;;;;;;4206232;28;20590;-70
2021/11/17 05:59:23;;;;;;;5.85;3.00;;;30.50;87.90;;;;;;4210124;28;20294;-70
2021/11/17 06:01:49;;;;;;;5.95;2.72;;;30.60;87.60;;;;;;4206071;28;20048;-70
2021/11/17 06:06:00;;;;;;;6.22;2.83;;;30.60;87.40;;;;;;4209670;28;20076;-69
2021/11/17 06:08:04;;;;;;;7.28;3.10;;;30.70;87.60;;;;;;4209306;28;20514;-69
2021/11/17 06:10:16;;;;;;;5.38;2.90;;;30.80;87.00;;;;;;4191069;28;20337;-69
2021/11/17 06:12:21;;;;;;;5.83;2.77;;;30.90;87.00;;;;;;4198881;28;20369;-69
2021/11/17 06:14:27;;;;;;;10.55;2.72;;;31.00;86.70;;;;;;4210175;28;20119;-69
2021/11/17 06:16:37;;;;;;;4.20;2.80;;;31.00;86.50;;;;;;4204955;28;20044;-70
2021/11/17 06:18:41;;;;;;;8.20;3.00;;;31.00;85.30;;;;;;4208414;28;20339;-70
2021/11/17 06:20:46;;;;;;;6.05;2.60;;;31.00;85.10;;;;;;4206295;28;20581;-70
2021/11/17 06:22:56;;;;;;;5.30;2.67;;;31.00;85.40;;;;;;4208069;28;20036;-70
2021/11/17 06:25:01;;;;;;;7.43;2.90;;;31.00;85.60;;;;;;4208259;28;20589;-69
2021/11/17 06:27:07;;;;;;;7.90;2.60;;;31.00;85.50;;;;;;4190894;28;20103;-70
2021/11/17 06:29:33;;;;;;;6.32;2.30;;;30.90;85.80;;;;;;4208038;28;20134;-70
2021/11/17 06:31:39;;;;;;;5.00;2.33;;;31.00;85.70;;;;;;4206434;28;20074;-70
2021/11/17 06:33:43;;;;;;;6.60;2.75;;;31.10;85.40;;;;;;4208541;28;20044;-70
2021/11/17 06:35:48;;;;;;;6.93;2.42;;;31.10;85.00;;;;;;4206588;28;20114;-70
2021/11/17 06:37:56;;;;;;;5.30;2.67;;;31.10;85.20;;;;;;4207222;28;20044;-70
2021/11/17 06:40:01;;;;;;;5.65;2.50;;;31.10;85.20;;;;;;4206693;28;20102;-70
2021/11/17 06:42:08;;;;;;;12.23;3.00;;;31.10;85.00;;;;;;4208577;28;20067;-70
2021/11/17 06:44:13;;;;;;;5.43;2.28;;;31.20;84.60;;;;;;4205845;28;20135;-71
2021/11/17 06:46:18;;;;;;;6.13;2.40;;;31.20;84.50;;;;;;4207980;28;20141;-70
2021/11/17 06:48:24;;;;;;;4.65;2.42;;;31.20;84.40;;;;;;4209233;28;20539;-69
2021/11/17 06:50:29;;;;;;;6.72;2.50;;;31.30;84.70;;;;;;4208144;28;20118;-69
2021/11/17 06:52:33;;;;;;;8.55;2.50;;;31.30;84.40;;;;;;4205542;28;20040;-70
2021/11/17 06:54:38;;;;;;;6.63;2.40;;;31.30;83.90;;;;;;4208229;28;20035;-69
2021/11/17 06:56:43;;;;;;;8.95;2.35;;;31.30;84.50;;;;;;4208026;28;20134;-69
2021/11/17 06:58:47;;;;;;;3.92;2.08;;;31.30;84.60;;;;;;4208864;28;20048;-68
2021/11/17 07:00:54;;;;;;;7.47;2.58;;;31.30;83.90;;;;;;4206632;28;20052;-69
2021/11/17 07:02:58;;;;;;;6.72;2.55;;;31.40;83.30;;;;;;4207885;28;20043;-70
2021/11/17 07:05:04;;;;;;;7.72;2.88;;;31.40;82.70;;;;;;4207445;28;20482;-70
2021/11/17 07:07:09;;;;;;;5.80;2.28;;;31.40;83.30;;;;;;4209111;28;20044;-69
2021/11/17 07:09:14;;;;;;;5.13;2.13;;;31.30;83.20;;;;;;4203816;28;20131;-72
2021/11/17 07:11:19;;;;;;;7.07;2.67;;;31.30;83.80;;;;;;4206204;28;20089;-71
2021/11/17 07:13:26;;;;;;;9.90;3.20;;;31.30;83.80;;;;;;4208568;28;20125;-70
2021/11/17 07:15:31;;;;;;;6.05;2.88;;;31.30;84.20;;;;;;4206785;28;20462;-71
2021/11/17 07:17:35;;;;;;;5.85;2.60;;;31.30;84.30;;;;;;4205943;28;20486;-69
2021/11/17 07:19:40;;;;;;;5.45;2.30;;;31.40;84.50;;;;;;4207736;28;20040;-69
2021/11/17 07:21:45;;;;;;;6.93;2.70;;;31.40;84.90;;;;;;4208758;28;20460;-70
2021/11/17 07:23:51;;;;;;;6.75;2.47;;;31.40;84.90;;;;;;4207044;28;20036;-70
2021/11/17 07:25:55;;;;;;;6.18;2.60;;;31.50;84.70;;;;;;4208196;28;20410;-70
2021/11/17 07:27:59;;;;;;;5.35;2.83;;;31.50;84.40;;;;;;4207029;28;20525;-71
2021/11/17 07:30:10;;;;;;;6.38;3.00;;;31.40;83.80;;;;;;4207152;28;20522;-69
2021/11/17 07:32:14;;;;;;;11.50;2.92;;;31.50;84.20;;;;;;4205427;28;20514;-70
2021/11/17 07:34:19;;;;;;;6.18;2.47;;;31.40;83.60;;;;;;4190120;28;20885;-71
2021/11/17 07:36:23;;;;;;;8.07;2.90;;;31.50;83.60;;;;;;4188302;28;20081;-69
2021/11/17 07:38:28;;;;;;;8.63;2.67;;;31.40;83.50;;;;;;4205623;28;20513;-68
2021/11/17 07:40:35;;;;;;;4.88;2.35;;;31.50;83.60;;;;;;4205898;28;20032;-68
2021/11/17 07:42:40;;;;;;;9.32;2.47;;;31.50;83.90;;;;;;4203464;28;20517;-68
2021/11/17 07:44:48;;;;;;;8.90;2.80;;;31.50;84.50;;;;;;4196842;28;20123;-70
2021/11/17 07:46:53;;;;;;;6.07;2.65;;;31.50;82.70;;;;;;4206602;28;20044;-71
2021/11/17 07:48:58;;;;;;;6.15;2.47;;;31.50;83.20;;;;;;4188732;28;20581;-69
2021/11/17 07:51:03;;;;;;;7.88;2.40;;;31.50;83.00;;;;;;4196114;28;20071;-70
2021/11/17 07:53:08;;;;;;;5.82;2.30;;;31.40;82.30;;;;;;4204260;28;20055;-69
2021/11/17 07:55:14;;;;;;;5.93;2.42;;;31.40;82.50;;;;;;4205552;28;20048;-69
2021/11/17 07:57:20;;;;;;;8.35;2.30;;;31.40;82.10;;;;;;4207427;28;20044;-69
2021/11/17 07:59:27;;;;;;;4.22;2.08;;;31.40;82.70;;;;;;4205503;28;20052;-70
2021/11/17 08:01:31;;;;;;;6.72;2.35;;;31.40;82.70;;;;;;4205498;28;20528;-69
2021/11/17 08:03:38;;;;;;;8.23;2.47;;;31.30;82.80;;;;;;4206834;28;20473;-69
2021/11/17 08:05:43;;;;;;;5.88;2.50;;;31.20;82.80;;;;;;4205400;28;20475;-70
2021/11/17 08:07:48;;;;;;;7.22;2.60;;;31.20;82.80;;;;;;4173365;28;20500;-69
2021/11/17 08:09:52;;;;;;;5.85;2.33;;;31.20;82.30;;;;;;4203599;28;20099;-69
2021/11/17 08:11:57;;;;;;;5.13;2.33;;;31.10;82.90;;;;;;4198784;28;20106;-71
2021/11/17 08:14:01;;;;;;;8.32;2.40;;;31.10;82.90;;;;;;4206522;28;20374;-68
2021/11/17 08:16:06;;;;;;;5.57;2.17;;;31.20;82.90;;;;;;4208326;28;20423;-67
2021/11/17 08:18:10;;;;;;;7.22;2.63;;;31.30;82.40;;;;;;4208601;28;20525;-68
2021/11/17 08:20:17;;;;;;;5.88;2.60;;;31.30;82.50;;;;;;4209062;28;20048;-67
2021/11/17 08:22:22;;;;;;;8.68;2.70;;;31.40;82.60;;;;;;4208689;28;20048;-68
2021/11/17 08:24:26;;;;;;;5.75;2.35;;;31.40;83.00;;;;;;4209992;28;20048;-68
2021/11/17 08:26:31;;;;;;;4.05;2.58;;;31.40;83.40;;;;;;4210170;28;20042;-68
2021/11/17 08:28:36;;;;;;;3.72;2.58;;;31.40;83.30;;;;;;4209082;28;20055;-69
2021/11/17 08:30:41;;;;;;;6.78;2.90;;;31.50;83.00;;;;;;4210209;28;20559;-69
2021/11/17 08:32:46;;;;;;;7.88;3.03;;;31.50;82.80;;;;;;4206664;28;20086;-69
2021/11/17 08:34:50;;;;;;;5.60;2.50;;;31.40;82.80;;;;;;4208346;28;20047;-69
2021/11/17 08:36:55;;;;;;;7.07;2.50;;;31.30;82.80;;;;;;4192443;28;20048;-70
2021/11/17 08:39:01;;;;;;;8.65;2.60;;;31.30;82.20;;;;;;4210289;28;20070;-68
2021/11/17 08:41:07;;;;;;;4.97;2.75;;;31.20;81.80;;;;;;4192623;28;20048;-68
2021/11/17 08:43:12;;;;;;;5.32;2.35;;;31.20;82.80;;;;;;4209177;28;20075;-67
2021/11/17 08:45:16;;;;;;;10.25;3.33;;;31.20;82.80;;;;;;4210059;28;20129;-68
2021/11/17 08:47:21;;;;;;;6.25;2.72;;;31.00;82.90;;;;;;4212039;28;20217;-68
2021/11/17 08:49:26;;;;;;;7.53;2.70;;;31.00;83.20;;;;;;4210101;28;20047;-68
2021/11/17 08:51:30;;;;;;;8.20;2.40;;;31.00;83.60;;;;;;4207919;28;20076;-68
2021/11/17 08:53:35;;;;;;;7.18;2.65;;;31.00;83.40;;;;;;4204592;28;20520;-68
2021/11/17 08:55:44;;;;;;;8.38;2.90;;;30.90;84.10;;;;;;4207306;28;20513;-67
2021/11/17 08:57:49;;;;;;;8.38;2.70;;;31.00;84.30;;;;;;4177713;28;20132;-68
2021/11/17 08:59:54;;;;;;;5.47;2.70;;;30.90;84.50;;;;;;4210819;28;20139;-67
2021/11/17 09:02:04;;;;;;;6.22;2.55;;;30.90;84.70;;;;;;4193595;28;20040;-68
2021/11/17 09:04:09;;;;;;;5.93;2.83;;;30.90;84.80;;;;;;4210607;28;20063;-68
2021/11/17 09:06:14;;;;;;;10.70;3.97;;;30.90;85.00;;;;;;4207399;28;20599;-68
2021/11/17 09:08:19;;;;;;;8.25;4.28;;;30.90;85.50;;;;;;4206150;28;20048;-69
2021/11/17 09:10:29;;;;;;;8.95;4.30;;;30.90;85.40;;;;;;4208478;28;20210;-68
2021/11/17 09:12:34;;;;;;;7.95;4.25;;;30.90;85.40;;;;;;4209619;28;20048;-68
2021/11/17 09:14:38;;;;;;;11.27;4.43;;;31.00;85.80;;;;;;4207826;28;20109;-69
2021/11/17 09:16:43;;;;;;;8.18;3.85;;;31.00;85.70;;;;;;4209025;28;20052;-70
2021/11/17 09:18:50;;;;;;;10.25;3.53;;;31.00;85.70;;;;;;4210120;28;20036;-69
2021/11/17 09:20:55;;;;;;;7.70;3.30;;;31.10;85.80;;;;;;4207326;28;20143;-69
2021/11/17 09:22:59;;;;;;;5.03;2.65;;;31.10;85.20;;;;;;4216106;28;20486;-69
2021/11/17 09:25:05;;;;;;;11.38;3.40;;;31.10;84.40;;;;;;4212988;28;20039;-69
2021/11/17 09:27:10;;;;;;;6.32;2.92;;;31.20;84.50;;;;;;4207756;28;20052;-70
2021/11/17 09:29:15;;;;;;;14.73;2.97;;;31.20;84.00;;;;;;4211399;28;20109;-69
2021/11/17 09:31:20;;;;;;;6.90;2.83;;;31.20;84.10;;;;;;4209224;28;20568;-70
2021/11/17 09:33:28;;;;;;;4.18;2.50;;;31.20;83.90;;;;;;4210932;28;20077;-70
2021/11/17 09:35:34;;;;;;;4.85;2.88;;;31.20;84.00;;;;;;4210761;28;20371;-69
2021/11/17 09:37:39;;;;;;;6.68;2.70;;;31.10;84.40;;;;;;4211693;28;20054;-70
2021/11/17 09:39:46;;;;;;;6.85;2.95;;;31.10;84.70;;;;;;4209168;28;20036;-70
2021/11/17 09:41:54;;;;;;;6.93;3.03;;;31.10;85.30;;;;;;4210682;28;20036;-70
2021/11/17 09:44:02;;;;;;;8.27;3.13;;;31.10;84.90;;;;;;4210790;28;20042;-70
2021/11/17 09:46:10;;;;;;;11.13;3.70;;;31.00;85.20;;;;;;4211652;28;20048;-70
2021/11/17 09:48:16;;;;;;;7.43;3.85;;;31.00;85.10;;;;;;4210693;28;20039;-69
2021/11/17 09:50:28;;;;;;;8.05;4.07;;;30.90;85.30;;;;;;4192360;28;20055;-69
2021/11/17 09:52:41;;;;;;;7.05;4.32;;;30.90;85.30;;;;;;4209304;28;20118;-69
2021/11/17 09:54:56;;;;;;;11.55;4.63;;;30.90;85.50;;;;;;4210022;28;20418;-69
2021/11/17 09:57:16;;;;;;;8.82;4.45;;;30.90;85.60;;;;;;4195224;28;20051;-69
2021/11/17 09:59:42;;;;;;;9.30;4.75;;;30.90;85.60;;;;;;4211671;28;20042;-69
2021/11/17 10:02:01;;;;;;;9.63;3.70;;;30.90;85.60;;;;;;4195734;28;20447;-69
2021/11/17 10:04:38;;;;;;;13.00;3.92;;;30.80;85.40;;;;;;4211875;28;20073;-69
2021/11/17 10:12:08;;;;;;;17.30;5.75;;;30.80;86.10;;;;;;4198159;28;20089;-69
2021/11/17 10:14:13;;;;;;;11.48;5.85;;;30.70;86.30;;;;;;4208323;28;20437;-70
2021/11/17 10:16:17;;;;;;;14.43;7.10;;;30.70;86.60;;;;;;4209102;28;20067;-70
2021/11/17 10:18:39;;;;;;;16.40;8.40;;;30.70;86.70;;;;;;4208105;28;20047;-70
2021/11/17 10:20:50;;;;;;;15.48;7.35;;;30.70;86.90;;;;;;4208097;28;20642;-71
2021/11/17 10:23:08;;;;;;;17.17;7.00;;;30.70;87.00;;;;;;4209807;28;20315;-70
2021/11/17 10:25:22;;;;;;;10.15;5.90;;;30.60;87.10;;;;;;4209650;28;20043;-69
2021/11/17 10:27:29;;;;;;;;;;;30.60;87.20;;;;;;4209075;28;20047;-69
2021/11/17 10:29:36;;;;;;;15.02;7.15;;;30.60;87.40;;;;;;4207219;28;20532;-69
2021/11/17 10:32:00;;;;;;;10.80;7.35;;;30.60;87.50;;;;;;4208871;28;20052;-69
2021/11/17 10:34:13;;;;;;;26.00;12.68;;;30.50;87.60;;;;;;4209085;28;20097;-70
2021/11/17 10:36:36;;;;;;;20.77;11.68;;;30.50;87.50;;;;;;4209461;28;20125;-68
2021/11/17 10:38:45;;;;;;;26.43;13.97;;;30.40;88.10;;;;;;4208543;28;20473;-69
2021/11/17 10:40:53;;;;;;;21.73;12.82;;;30.40;88.10;;;;;;4192580;28;20062;-69
2021/11/17 10:43:00;;;;;;;24.52;12.65;;;30.40;88.10;;;;;;4192454;28;20063;-70
2021/11/17 10:45:11;;;;;;;24.52;11.90;;;30.40;88.20;;;;;;4193948;28;20098;-69
2021/11/17 10:47:27;;;;;;;21.27;9.63;;;30.40;88.20;;;;;;4209732;28;20052;-69
2021/11/17 10:49:34;;;;;;;19.20;10.40;;;30.40;88.20;;;;;;4209291;28;20052;-69
2021/11/17 10:51:59;;;;;;;22.45;10.68;;;30.40;88.30;;;;;;4208815;28;20063;-69
2021/11/17 10:54:09;;;;;;;16.88;8.93;;;30.40;88.20;;;;;;4210114;28;20048;-69
2021/11/17 10:56:17;;;;;;;17.02;8.35;;;30.40;88.40;;;;;;4194820;28;20044;-69
2021/11/17 10:58:24;;;;;;;20.83;8.95;;;30.30;88.60;;;;;;4191497;28;20048;-68
2021/11/17 11:00:36;;;;;;;16.65;9.00;;;30.30;88.60;;;;;;4207807;28;20721;-68
2021/11/17 11:02:41;;;;;;;14.90;6.93;;;30.30;88.70;;;;;;4205644;28;20056;-67
2021/11/17 11:05:05;;;;;;;12.43;5.78;;;30.30;88.70;;;;;;4208302;28;20059;-69
2021/11/17 11:07:40;;;;;;;17.35;6.03;;;30.30;88.80;;;;;;4207977;28;20553;-69
2021/11/17 11:09:46;;;;;;;15.25;6.53;;;30.30;88.90;;;;;;4205607;28;20051;-70
2021/11/17 11:11:51;;;;;;;14.93;6.70;;;30.30;88.90;;;;;;4204789;28;20094;-70
2021/11/17 11:14:12;;;;;;;13.32;6.88;;;30.30;88.90;;;;;;4207459;28;20468;-70
2021/11/17 11:16:21;;;;;;;21.08;7.15;;;30.30;89.00;;;;;;4205023;28;20072;-70
2021/11/17 11:18:37;;;;;;;15.20;6.57;;;30.20;89.00;;;;;;4205280;28;20375;-69
2021/11/17 11:20:52;;;;;;;14.68;5.30;;;30.20;89.20;;;;;;4208013;28;20414;-70
2021/11/17 11:23:07;;;;;;;15.02;6.35;;;30.10;89.50;;;;;;4206765;28;20047;-71
2021/11/17 11:25:41;;;;;;;12.88;5.78;;;30.00;90.00;;;;;;4205916;28;20040;-70
2021/11/17 11:28:20;;;;;;;16.45;5.68;;;30.10;89.90;;;;;;4207095;28;20130;-70
2021/11/17 11:30:36;;;;;;;13.73;6.20;;;30.10;89.90;;;;;;4207584;28;20078;-71
2021/11/17 11:32:41;;;;;;;17.35;8.55;;;30.00;90.00;;;;;;4205867;28;20443;-70
2021/11/17 11:34:49;;;;;;;23.20;8.73;;;30.00;90.00;;;;;;4207830;28;20046;-70
2021/11/17 11:36:53;;;;;;;20.10;8.55;;;30.00;90.00;;;;;;4206125;28;20036;-70
2021/11/17 11:38:58;;;;;;;19.25;7.90;;;30.00;89.80;;;;;;4208154;28;20540;-70
2021/11/17 11:41:12;;;;;;;18.15;8.95;;;30.00;90.00;;;;;;4207303;28;20040;-70
2021/11/17 11:43:23;;;;;;;19.92;8.80;;;30.00;90.10;;;;;;4206570;28;20036;-70
2021/11/17 11:45:27;;;;;;;19.23;9.43;;;30.00;90.10;;;;;;4207075;28;20047;-71
2021/11/17 11:47:41;;;;;;;19.27;9.88;;;30.00;90.10;;;;;;4205041;28;20052;-69
2021/11/17 11:49:53;;;;;;;27.23;10.77;;;30.00;90.30;;;;;;4210933;28;20048;-71
2021/11/17 11:52:10;;;;;;;27.42;10.73;;;29.90;90.30;;;;;;4207763;28;20218;-71
2021/11/17 11:54:16;;;;;;;19.38;10.20;;;29.90;90.30;;;;;;4208417;28;20044;-72
2021/11/17 11:56:26;;;;;;;17.77;10.10;;;29.90;90.30;;;;;;4209312;28;20056;-69
2021/11/17 11:58:36;;;;;;;17.80;10.18;;;29.90;90.30;;;;;;4181564;28;20434;-71
2021/11/17 12:00:41;;;;;;;23.40;9.73;;;29.90;90.30;;;;;;4200945;28;20044;-69
2021/11/17 12:02:54;;;;;;;18.50;10.07;;;29.90;90.30;;;;;;4205368;28;20080;-71
2021/11/17 12:05:01;;;;;;;21.95;10.55;;;29.90;90.30;;;;;;4195975;28;20044;-68
2021/11/17 12:07:10;;;;;;;21.05;11.02;;;29.90;90.40;;;;;;4209044;28;20059;-69
2021/11/17 12:09:28;;;;;;;34.50;20.15;;;29.90;90.50;;;;;;4210373;28;20043;-68
2021/11/17 12:11:33;;;;;;;32.70;18.45;;;29.90;90.90;;;;;;4197691;28;20421;-69
2021/11/17 12:13:40;;;;;;;34.63;18.83;;;29.90;90.90;;;;;;4206542;28;20081;-69
2021/11/17 12:16:14;;;;;;;35.05;16.80;;;29.90;91.00;;;;;;4208770;28;20048;-69
2021/11/17 12:18:19;;;;;;;33.33;16.75;;;29.80;91.00;;;;;;4208763;28;20040;-71
2021/11/17 12:20:29;;;;;;;25.25;13.82;;;29.80;91.00;;;;;;4205941;28;20048;-68
2021/11/17 12:22:43;;;;;;;23.48;12.82;;;29.80;91.10;;;;;;4206225;28;20052;-68
2021/11/17 12:24:52;;;;;;;26.02;11.55;;;29.80;91.20;;;;;;4207237;28;20068;-69
2021/11/17 12:27:21;;;;;;;24.85;11.93;;;29.70;91.30;;;;;;4193635;28;20049;-68
2021/11/17 12:29:30;;;;;;;26.90;11.65;;;29.70;91.60;;;;;;4209942;28;20079;-68
2021/11/17 12:31:40;;;;;;;24.63;12.05;;;29.70;91.50;;;;;;4198560;28;20051;-69
2021/11/17 12:33:47;;;;;;;25.25;11.90;;;29.70;91.50;;;;;;4209025;28;20078;-68
2021/11/17 12:36:01;;;;;;;25.65;12.48;;;29.70;91.80;;;;;;4192807;28;20044;-68
2021/11/17 12:38:18;;;;;;;26.55;12.60;;;29.70;91.60;;;;;;4211598;28;20490;-71
2021/11/17 12:40:42;;;;;;;26.45;14.55;;;29.60;91.60;;;;;;4189121;28;20045;-69
2021/11/17 12:42:54;;;;;;;24.23;13.87;;;29.60;91.90;;;;;;4205581;28;20142;-69
2021/11/17 12:45:28;;;;;;;33.25;13.90;;;29.50;91.80;;;;;;4207945;28;20048;-68
2021/11/17 12:47:53;;;;;;;26.75;12.55;;;29.50;91.90;;;;;;4209062;28;20108;-68
2021/11/17 12:50:11;;;;;;;28.90;12.25;;;29.50;91.80;;;;;;4204938;28;20220;-70
2021/11/17 12:52:30;;;;;;;23.98;11.88;;;29.60;91.70;;;;;;4203826;28;20055;-68
2021/11/17 12:54:41;;;;;;;25.88;11.77;;;29.60;91.70;;;;;;4209103;28;20114;-69
2021/11/17 12:56:50;;;;;;;23.60;12.20;;;29.60;91.80;;;;;;4209371;28;20048;-68
2021/11/17 12:59:03;;;;;;;23.05;13.23;;;29.60;92.10;;;;;;4207376;28;20052;-71
2021/11/17 13:01:11;;;;;;;29.05;15.32;;;29.50;92.40;;;;;;4199570;28;20036;-68
2021/11/17 13:03:32;;;;;;;28.48;14.30;;;29.50;92.40;;;;;;4204414;28;20435;-70
2021/11/17 13:05:42;;;;;;;34.92;14.57;;;29.50;92.40;;;;;;4209070;28;20405;-68
2021/11/17 13:07:49;;;;;;;30.48;15.60;;;29.50;92.40;;;;;;4209424;28;20051;-70
2021/11/17 13:09:58;;;;;;;28.52;14.43;;;29.50;92.40;;;;;;4205206;28;20055;-68
2021/11/17 13:12:06;;;;;;;26.35;14.57;;;29.50;92.60;;;;;;4202915;28;20048;-70
2021/11/17 13:14:35;;;;;;;27.98;15.63;;;29.40;92.70;;;;;;4207394;28;20058;-69
2021/11/17 13:16:43;;;;;;;31.83;13.90;;;29.30;93.10;;;;;;4208970;28;20048;-69
2021/11/17 13:18:48;;;;;;;24.92;13.25;;;29.30;93.00;;;;;;4206479;28;20032;-70
2021/11/17 13:20:58;;;;;;;24.60;13.80;;;29.30;93.00;;;;;;4200680;28;20125;-69
2021/11/17 13:23:12;;;;;;;27.20;13.63;;;29.30;93.00;;;;;;4206065;28;20039;-69
2021/11/17 13:25:30;;;;;;;29.80;13.27;;;29.30;93.20;;;;;;4208476;28;20135;-68
2021/11/17 13:27:41;;;;;;;28.02;13.77;;;29.30;93.10;;;;;;4201328;28;20043;-69
2021/11/17 13:29:55;;;;;;;28.38;13.57;;;29.30;93.20;;;;;;4191180;28;20517;-69
2021/11/17 13:32:09;;;;;;;27.63;14.13;;;29.30;93.20;;;;;;4203720;28;20139;-70
2021/11/17 13:34:38;;;;;;;27.70;13.27;;;29.40;93.20;;;;;;4209503;28;20094;-69
2021/11/17 13:36:51;;;;;;;21.85;12.35;;;29.30;93.20;;;;;;4210280;28;20275;-70
2021/11/17 13:38:57;;;;;;;31.85;13.45;;;29.30;93.10;;;;;;4208716;28;20453;-69
2021/11/17 13:41:14;;;;;;;26.67;13.20;;;29.30;93.20;;;;;;4179189;28;20063;-68
2021/11/17 13:43:19;;;;;;;24.42;11.68;;;29.30;93.10;;;;;;4175817;28;20123;-69
2021/11/17 13:45:27;;;;;;;22.38;12.68;;;29.30;93.20;;;;;;4207729;28;20104;-69
2021/11/17 13:47:32;;;;;;;25.27;12.93;;;29.30;93.30;;;;;;4209755;28;20514;-69
2021/11/17 13:49:39;;;;;;;23.45;12.75;;;29.30;93.30;;;;;;4208535;28;20054;-69
2021/11/17 13:51:43;;;;;;;25.35;13.07;;;29.30;93.30;;;;;;4183175;28;20053;-68
2021/11/17 13:53:48;;;;;;;29.83;12.98;;;29.30;93.40;;;;;;4205981;28;20055;-69
2021/11/17 13:55:56;;;;;;;27.10;13.38;;;29.30;93.50;;;;;;4209981;28;20338;-69
2021/11/17 13:58:03;;;;;;;23.05;13.63;;;29.30;93.60;;;;;;4209702;28;20044;-70
2021/11/17 14:00:09;;;;;;;31.10;12.95;;;29.20;93.80;;;;;;4203175;28;20048;-69
2021/11/17 14:02:14;;;;;;;27.27;13.80;;;29.20;93.80;;;;;;4203624;28;20047;-68